Sunday, May 27, 2018, 9:44 AM GMT
Back to Local

CWFQ, Frelighsburg

Location: , , Canada Lat: 45.05
Local Time: 9:44 AM GMT ( 9:44 GMT) Lon: -72.833
Time Zone: GMT Elev: 498 ft

Show me the last for .
Show Coded

Time T Td Feel RH Dir Speed Gust Alt SLP Vis Weather Sky Remarks
2018-05-27 09:00 60 48 - 64 140° 8 - - 29.99 0 None
2018-05-27 08:00 58 47 - 65 140° 7 - - 29.98 0 None
2018-05-27 07:00 58 44 - 60 140° 6 - - 29.98 0 None
2018-05-27 06:00 58 42 - 55 140° 6 - - 29.98 0 None
2018-05-27 05:00 58 42 - 55 140° 5 - - 29.98 0 None
2018-05-27 04:00 57 44 - 61 130° 3 - - 29.98 0 None
2018-05-27 03:00 60 41 - 49 50° 3 - - 29.97 0 None
2018-05-27 02:00 59 46 - 60 30° 3 - - 29.96 0 None
2018-05-27 01:00 60 46 - 60 40° 2 - - 29.94 0 None
2018-05-27 00:00 63 48 - 57 20° 2 - - 29.92 0 None
2018-05-26 23:00 65 59 - 81 350° 1 - - 29.89 0 None
2018-05-26 22:00 68 60 - 77 330° 2 - - 29.88 0 None
2018-05-26 21:00 67 59 - 75 340° 3 - - 29.87 0 None
2018-05-26 20:00 67 59 - 75 320° 2 - - 29.86 0 None
2018-05-26 19:00 66 61 - 82 310° 2 - - 29.84 0 None
2018-05-26 18:00 64 62 - 93 310° 2 - - 29.83 0 None
2018-05-26 17:00 61 60 - 96 330° 3 - - 29.81 0 None
2018-05-26 16:00 61 60 - 95 300° 3 - - 29.80 0 1-hr Precip Total: 0.03"
2018-05-26 15:00 61 60 - 96 250° 2 - - 29.78 0 1-hr Precip Total: 0.04"
2018-05-26 14:00 62 60 - 96 210° 2 - - 29.77 0 1-hr Precip Total: 0.05"
2018-05-26 13:00 62 61 - 94 270° 1 - - 29.77 0 1-hr Precip Total: 0.02"
2018-05-26 12:00 62 61 - 95 180° 2 - - 29.72 0 1-hr Precip Total: 0.17"
2018-05-26 11:00 62 57 - 82 220° 5 - - 29.72 0 None
2018-05-26 10:00 64 55 - 71 180° 2 - - 29.68 0 None

Support USWX by starting your Amazon purchase here.